Ana Sayfa
METAR-TAF:

METAR-TAF

Havaalanları :

Tucson, Arizona, Amerika Birleşik Devletleri

Enlem: 32-07-53N, Boylam: 110-57-19W, yükseklik: 805 m

Güncel hava durumu gözlemi

Rapor saat 05:53 UTC de 1 saat ve 1 dakika önce yapıldı.
Rüzgar batı/güneybatıdan 6 kt
Sıcaklık 29°C
Nem 12%
Basınç 1013 hPa
Görüş mesafesi: 16.1 km
Açık gökyüzü

METAR: KTUS 150553Z 25006KT 10SM CLR 29/M03 A2990 RMK AO2 SLP069 T02891028 10389 20283 51014

Saat: 23:54 (06:54 UTC)

Tahmin

Rapor saat 05:20 UTC de 1 saat ve 34 dakika önce yapıldı.
Ayın 15'si saat 06 UTC'den ayın 16'si saat 06 UTC'ye kadar geçerli Tahmin
Rüzgar batı/kuzeybatıdan 7 kt
Görüş mesafesi: 10 km
Açık gökyüzü
Ayın 15'si saat 0700 UTC'den
Rüzgar güney/güneydoğudan 5 kt
Görüş mesafesi: 10 km
Açık gökyüzü
Ayın 15'si saat 2000 UTC'den
Rüzgar batı/kuzeybatıdan 8 kt
Görüş mesafesi: 10 km
Açık gökyüzü

TAF: KTUS 150520Z 1506/1606 30007KT P6SM SKC FM150700 15005KT P6SM SKC FM152000 30008KT P6SM SKC

4.000'den fazla havaalanı için hava durumu gözlemleri ve tahminleri (METAR ve TAF raporları).

Kullanılabilir istasyonlar harita üzerinde sarı ve kırmızı noktalarla gösterilir.

İstasyonun adını görmek için fareyi noktanın üzerinde gezdirin.

Sonrasında hava gözlem ve tahminlerini görmek için tıklayın.

Haritayı değiştirmek için: yaklaştırmak için siyah artı işaretli yeşil düğmeye ve uzaklaştırmak için de eksi işaretli düğmeye hızla tıklayın; bitişik haritalar için yeşil okları kullanın.


METAR-TAF: